createdAt,value
2018-03-31T00:00:39.540Z,64.44
2018-03-31T00:03:06.383Z,64.53
2018-03-31T00:05:33.291Z,64.65
2018-03-31T00:08:00.142Z,64.45
2018-03-31T00:10:27.070Z,64.67
2018-03-31T00:12:54.781Z,64.90
2018-03-31T00:15:21.679Z,64.73
2018-03-31T00:17:48.611Z,64.87
2018-03-31T00:20:15.471Z,64.70
2018-03-31T00:22:42.325Z,64.54
2018-03-31T00:25:09.154Z,64.86
2018-03-31T00:27:36.007Z,65.17
2018-03-31T00:30:03.455Z,65.22
2018-03-31T00:32:30.307Z,65.51
2018-03-31T00:34:57.151Z,65.71
2018-03-31T00:37:24.018Z,65.89
2018-03-31T00:39:50.862Z,65.75
2018-03-31T00:42:17.742Z,65.44
2018-03-31T00:44:44.594Z,65.88
2018-03-31T00:47:11.530Z,66.24
2018-03-31T00:49:38.474Z,66.35
2018-03-31T00:52:05.339Z,66.59
2018-03-31T00:54:32.182Z,66.49
2018-03-31T00:56:59.039Z,66.58
2018-03-31T00:59:25.955Z,66.71
2018-03-31T01:01:52.838Z,66.37
2018-03-31T01:04:19.782Z,66.71
2018-03-31T01:06:46.639Z,66.62
2018-03-31T01:09:13.572Z,66.80
2018-03-31T01:11:40.436Z,66.87
2018-03-31T01:14:07.274Z,66.68
2018-03-31T01:16:34.198Z,66.59
2018-03-31T01:19:01.047Z,66.84
2018-03-31T01:21:27.917Z,66.62
2018-03-31T01:23:54.821Z,66.93
2018-03-31T01:26:21.767Z,66.78
2018-03-31T01:28:48.707Z,66.77
2018-03-31T01:31:15.654Z,66.59
2018-03-31T01:33:42.599Z,66.38
2018-03-31T01:36:09.546Z,66.74
2018-03-31T01:38:36.391Z,66.75
2018-03-31T01:41:03.258Z,66.57
2018-03-31T01:43:30.117Z,66.88
2018-03-31T01:45:57.018Z,66.64
2018-03-31T01:48:23.975Z,66.63
2018-03-31T01:50:50.914Z,66.70
2018-03-31T01:53:17.763Z,67.30
2018-03-31T01:55:44.626Z,67.39
2018-03-31T01:58:11.487Z,67.22
2018-03-31T02:00:38.375Z,67.32
2018-03-31T02:03:05.233Z,67.13
2018-03-31T02:05:32.077Z,66.85
2018-03-31T02:07:58.939Z,66.90
2018-03-31T02:10:25.797Z,67.11
2018-03-31T02:12:52.659Z,67.01
2018-03-31T02:15:19.499Z,67.19
2018-03-31T02:17:46.370Z,66.98
2018-03-31T02:20:13.228Z,67.08
2018-03-31T02:22:40.084Z,67.03
2018-03-31T02:25:06.926Z,66.89
2018-03-31T02:27:33.782Z,66.72
2018-03-31T02:30:00.636Z,67.01
2018-03-31T02:32:27.528Z,67.15
2018-03-31T02:34:54.470Z,66.20
2018-03-31T02:37:21.324Z,66.09
2018-03-31T02:39:48.171Z,66.67
2018-03-31T02:42:15.117Z,66.62
2018-03-31T02:44:41.963Z,66.59
2018-03-31T02:47:08.816Z,66.29
2018-03-31T02:49:35.672Z,66.70
2018-03-31T02:52:02.566Z,66.37
2018-03-31T02:54:29.415Z,66.45
2018-03-31T02:56:56.268Z,65.99
2018-03-31T02:59:23.110Z,66.97
2018-03-31T03:01:49.962Z,66.84
2018-03-31T03:04:16.815Z,66.91
2018-03-31T03:06:43.744Z,66.92
2018-03-31T03:09:10.686Z,67.31
2018-03-31T03:11:37.550Z,67.33
2018-03-31T03:14:04.391Z,67.61
2018-03-31T03:16:31.314Z,67.51
2018-03-31T03:18:58.163Z,67.98
2018-03-31T03:21:25.023Z,67.97
2018-03-31T03:23:53.075Z,67.93
2018-03-31T03:26:19.915Z,68.04
2018-03-31T03:28:47.795Z,68.59
2018-03-31T03:31:14.735Z,68.32
2018-03-31T03:33:41.580Z,67.95
2018-03-31T03:36:08.511Z,67.60
2018-03-31T03:38:35.459Z,67.83
2018-03-31T03:41:02.311Z,67.53
2018-03-31T03:43:29.171Z,67.16
2018-03-31T03:45:56.035Z,67.25
2018-03-31T03:48:22.895Z,67.39
2018-03-31T03:50:49.771Z,67.54
2018-03-31T03:53:16.666Z,67.25
2018-03-31T03:55:43.516Z,67.11
2018-03-31T03:58:10.452Z,67.11
2018-03-31T04:00:37.395Z,67.78
2018-03-31T04:03:04.260Z,68.31
2018-03-31T04:05:31.111Z,68.05
2018-03-31T04:07:57.984Z,68.35
2018-03-31T04:10:24.833Z,68.77
2018-03-31T04:12:51.686Z,68.28
2018-03-31T04:15:18.541Z,68.09
2018-03-31T04:17:45.494Z,68.36
2018-03-31T04:20:12.355Z,67.78
2018-03-31T04:22:39.202Z,68.29
2018-03-31T04:25:06.122Z,68.70
2018-03-31T04:27:32.975Z,69.43
2018-03-31T04:29:59.828Z,69.77
2018-03-31T04:32:26.683Z,69.78
2018-03-31T04:34:53.535Z,69.86
2018-03-31T04:37:20.387Z,69.90
2018-03-31T04:39:47.246Z,70.21
2018-03-31T04:42:14.101Z,70.72
2018-03-31T04:44:40.946Z,70.71
2018-03-31T04:47:07.798Z,70.86
2018-03-31T04:49:34.673Z,71.70
2018-03-31T04:52:01.518Z,71.65
2018-03-31T04:54:28.371Z,71.97
2018-03-31T04:56:55.241Z,72.09
2018-03-31T04:59:22.110Z,71.98
2018-03-31T05:01:48.974Z,72.31
2018-03-31T05:04:15.831Z,72.24
2018-03-31T05:06:42.690Z,72.77
2018-03-31T05:09:09.541Z,72.19
2018-03-31T05:11:36.426Z,71.45
2018-03-31T05:14:03.305Z,71.69
2018-03-31T05:16:30.147Z,71.72
2018-03-31T05:18:56.998Z,71.70
2018-03-31T05:21:23.851Z,71.82
2018-03-31T05:23:50.743Z,71.98
2018-03-31T05:26:17.578Z,71.82
2018-03-31T05:28:44.440Z,72.21
2018-03-31T05:31:11.298Z,72.28
2018-03-31T05:33:38.154Z,72.60
2018-03-31T05:36:05.009Z,72.71
2018-03-31T05:38:31.859Z,73.14
2018-03-31T05:40:58.707Z,73.10
2018-03-31T05:43:25.555Z,72.67
2018-03-31T05:45:52.424Z,72.25
2018-03-31T05:48:19.366Z,73.67
2018-03-31T05:50:46.307Z,73.59
2018-03-31T05:53:13.171Z,73.85
2018-03-31T05:55:40.015Z,73.82
2018-03-31T05:58:06.878Z,73.93
2018-03-31T06:00:33.730Z,73.61
2018-03-31T06:03:00.627Z,74.51
2018-03-31T06:05:27.481Z,74.46
2018-03-31T06:07:54.335Z,74.71
2018-03-31T06:10:21.250Z,75.00
2018-03-31T06:12:48.110Z,76.21
2018-03-31T06:15:15.038Z,76.54
2018-03-31T06:17:41.894Z,76.67
2018-03-31T06:20:08.752Z,76.47
2018-03-31T06:22:35.666Z,76.99
2018-03-31T06:25:02.523Z,77.98
2018-03-31T06:27:29.372Z,78.94
2018-03-31T06:29:56.222Z,79.31
2018-03-31T06:32:23.078Z,80.06
2018-03-31T06:34:49.979Z,80.17
2018-03-31T06:37:16.834Z,80.86
2018-03-31T06:39:43.678Z,81.47
2018-03-31T06:42:10.607Z,82.14
2018-03-31T06:44:37.451Z,82.79
2018-03-31T06:47:04.311Z,83.15
2018-03-31T06:49:31.203Z,83.50
2018-03-31T06:51:58.036Z,83.93
2018-03-31T06:54:24.918Z,83.16
2018-03-31T06:56:51.775Z,84.07
2018-03-31T06:59:18.706Z,83.82
2018-03-31T07:01:45.579Z,83.70
2018-03-31T07:04:12.495Z,83.93
2018-03-31T07:06:39.340Z,84.30
2018-03-31T07:09:06.288Z,85.33
2018-03-31T07:11:33.138Z,84.80
2018-03-31T07:14:00.071Z,85.49
2018-03-31T07:16:26.922Z,85.56
2018-03-31T07:18:53.771Z,85.65
2018-03-31T07:21:20.691Z,85.92
2018-03-31T07:23:47.549Z,86.49
2018-03-31T07:26:14.402Z,85.88
2018-03-31T07:28:41.242Z,86.52
2018-03-31T07:31:08.754Z,86.84
2018-03-31T07:33:35.620Z,86.59
2018-03-31T07:36:02.564Z,86.83
2018-03-31T07:38:29.420Z,86.39
2018-03-31T07:40:56.271Z,86.48
2018-03-31T07:43:23.142Z,87.56
2018-03-31T07:45:49.978Z,86.63
2018-03-31T07:48:16.831Z,87.39
2018-03-31T07:50:43.688Z,86.46
2018-03-31T07:53:10.562Z,86.35
2018-03-31T07:55:37.510Z,86.07
2018-03-31T07:58:04.416Z,86.57
2018-03-31T08:00:31.320Z,85.12
2018-03-31T08:02:58.239Z,85.20
2018-03-31T08:05:25.092Z,85.14
2018-03-31T08:07:51.940Z,86.31
2018-03-31T08:10:18.791Z,87.01
2018-03-31T08:12:45.675Z,86.98
2018-03-31T08:15:12.523Z,87.13
2018-03-31T08:17:39.375Z,88.03
2018-03-31T08:20:06.222Z,87.39
2018-03-31T08:22:33.122Z,87.29
2018-03-31T08:24:59.976Z,87.73
2018-03-31T08:27:26.829Z,87.25
2018-03-31T08:29:53.684Z,87.16
2018-03-31T08:32:20.537Z,86.83
2018-03-31T08:34:47.391Z,86.30
2018-03-31T08:37:14.236Z,87.13
2018-03-31T08:39:41.126Z,87.76
2018-03-31T08:42:07.970Z,88.00
2018-03-31T08:44:34.916Z,87.93
2018-03-31T08:47:01.834Z,88.05
2018-03-31T08:49:28.614Z,87.95
2018-03-31T08:51:55.467Z,87.62
2018-03-31T08:54:22.318Z,85.17
2018-03-31T08:56:49.167Z,85.58
2018-03-31T08:59:16.083Z,85.42
2018-03-31T09:01:42.874Z,83.92
2018-03-31T09:04:09.755Z,85.27
2018-03-31T09:06:36.604Z,85.20
2018-03-31T09:09:03.459Z,85.58
2018-03-31T09:11:30.302Z,86.63
2018-03-31T09:13:57.223Z,85.65
2018-03-31T09:16:24.071Z,85.04
2018-03-31T09:18:50.932Z,85.80
2018-03-31T09:21:17.784Z,86.11
2018-03-31T09:23:44.690Z,85.83
2018-03-31T09:26:11.550Z,85.56
2018-03-31T09:28:38.413Z,86.60
2018-03-31T09:31:05.263Z,86.34
2018-03-31T09:33:32.158Z,85.66
2018-03-31T09:35:59.016Z,85.09
2018-03-31T09:38:25.870Z,85.80
2018-03-31T09:40:52.767Z,85.95
2018-03-31T09:43:19.602Z,86.09
2018-03-31T09:45:46.451Z,85.23
2018-03-31T09:48:13.302Z,85.58
2018-03-31T09:50:40.155Z,85.22
2018-03-31T09:53:07.003Z,86.67
2018-03-31T09:55:33.859Z,87.10
2018-03-31T09:58:00.731Z,86.83
2018-03-31T10:00:33.343Z,86.38
2018-03-31T10:03:00.202Z,86.44
2018-03-31T10:05:27.158Z,86.98
2018-03-31T10:07:54.089Z,87.02
2018-03-31T10:10:20.960Z,86.95
2018-03-31T10:12:47.799Z,87.27
2018-03-31T10:15:14.646Z,87.76
2018-03-31T10:17:41.504Z,87.85
2018-03-31T10:20:08.415Z,88.41
2018-03-31T10:22:35.385Z,88.26
2018-03-31T10:25:02.302Z,86.63
2018-03-31T10:27:29.155Z,86.50
2018-03-31T10:29:56.011Z,86.39
2018-03-31T10:32:22.927Z,87.08
2018-03-31T10:34:49.808Z,87.28
2018-03-31T10:37:16.655Z,86.49
2018-03-31T10:39:43.512Z,86.66
2018-03-31T10:42:10.395Z,86.78
2018-03-31T10:44:37.250Z,87.00
2018-03-31T10:47:04.186Z,86.70
2018-03-31T10:49:31.051Z,86.17
2018-03-31T10:51:57.895Z,85.14
2018-03-31T10:54:24.750Z,86.38
2018-03-31T10:56:51.659Z,85.73
2018-03-31T10:59:18.517Z,86.96
2018-03-31T11:01:45.392Z,86.36
2018-03-31T11:04:12.283Z,86.07
2018-03-31T11:06:39.235Z,85.16
2018-03-31T11:09:06.090Z,85.44
2018-03-31T11:11:32.943Z,85.05
2018-03-31T11:13:59.795Z,84.88
2018-03-31T11:16:26.643Z,85.06
2018-03-31T11:18:53.523Z,85.18
2018-03-31T11:21:20.364Z,86.04
2018-03-31T11:23:47.219Z,85.31
2018-03-31T11:26:14.069Z,86.52
2018-03-31T11:28:40.925Z,85.83
2018-03-31T11:31:07.790Z,85.86
2018-03-31T11:33:34.652Z,85.25
2018-03-31T11:36:01.500Z,84.90
2018-03-31T11:38:28.364Z,84.64
2018-03-31T11:40:55.233Z,84.53
2018-03-31T11:43:22.076Z,84.39
2018-03-31T11:45:48.922Z,85.14
2018-03-31T11:48:15.783Z,85.26
2018-03-31T11:50:42.634Z,84.49
2018-03-31T11:53:09.483Z,85.63
2018-03-31T11:55:36.351Z,85.63
2018-03-31T11:58:03.202Z,85.19
2018-03-31T12:00:30.179Z,84.97
2018-03-31T12:02:57.023Z,85.20
2018-03-31T12:05:23.911Z,85.87
2018-03-31T12:07:50.835Z,85.42
2018-03-31T12:10:17.704Z,85.63
2018-03-31T12:12:44.618Z,86.73
2018-03-31T12:15:11.563Z,87.17
2018-03-31T12:17:38.406Z,86.25
2018-03-31T12:20:05.351Z,85.45
2018-03-31T12:22:32.207Z,85.10
2018-03-31T12:24:59.130Z,84.37
2018-03-31T12:27:25.984Z,84.73
2018-03-31T12:29:52.843Z,84.37
2018-03-31T12:32:19.767Z,85.53
2018-03-31T12:34:46.627Z,86.37
2018-03-31T12:37:13.554Z,86.88
2018-03-31T12:39:40.430Z,87.12
2018-03-31T12:42:07.282Z,87.19
2018-03-31T12:44:34.143Z,87.63
2018-03-31T12:47:01.036Z,87.18
2018-03-31T12:49:27.962Z,87.75
2018-03-31T12:51:54.816Z,87.35
2018-03-31T12:54:21.751Z,87.60
2018-03-31T12:56:48.707Z,87.27
2018-03-31T12:59:16.487Z,87.14
2018-03-31T13:01:43.334Z,87.33
2018-03-31T13:04:10.196Z,86.20
2018-03-31T13:06:37.034Z,86.89
2018-03-31T13:09:03.894Z,87.76
2018-03-31T13:11:30.737Z,86.55
2018-03-31T13:13:57.594Z,87.77
2018-03-31T13:16:24.447Z,86.93
2018-03-31T13:18:51.311Z,87.22
2018-03-31T13:21:18.187Z,87.74
2018-03-31T13:23:45.047Z,87.13
2018-03-31T13:26:11.923Z,86.13
2018-03-31T13:28:38.835Z,87.70
2018-03-31T13:31:05.696Z,87.05
2018-03-31T13:33:32.540Z,86.71
2018-03-31T13:35:59.398Z,86.28
2018-03-31T13:38:26.264Z,86.65
2018-03-31T13:40:53.194Z,87.14
2018-03-31T13:43:20.046Z,87.83
2018-03-31T13:45:46.897Z,87.04
2018-03-31T13:48:13.742Z,86.06
2018-03-31T13:50:40.667Z,86.22
2018-03-31T13:53:07.615Z,85.64
2018-03-31T13:55:34.475Z,86.42
2018-03-31T13:58:01.319Z,86.83
2018-03-31T14:00:28.239Z,86.55
2018-03-31T14:02:55.098Z,86.76
2018-03-31T14:05:21.955Z,87.63
2018-03-31T14:07:48.790Z,86.65
2018-03-31T14:10:15.712Z,86.32
2018-03-31T14:12:42.554Z,86.59
2018-03-31T14:15:09.504Z,86.95
2018-03-31T14:17:36.338Z,86.83
2018-03-31T14:20:03.290Z,85.59
2018-03-31T14:22:30.279Z,85.65
2018-03-31T14:24:57.139Z,86.23
2018-03-31T14:27:23.989Z,87.15
2018-03-31T14:29:50.875Z,87.66
2018-03-31T14:32:17.724Z,86.61
2018-03-31T14:34:44.660Z,85.64
2018-03-31T14:37:11.506Z,86.83
2018-03-31T14:39:38.359Z,86.81
2018-03-31T14:42:05.287Z,86.49
2018-03-31T14:44:32.252Z,85.80
2018-03-31T14:46:59.197Z,86.42
2018-03-31T14:49:26.119Z,86.23
2018-03-31T14:51:52.994Z,86.18
2018-03-31T14:54:19.905Z,86.22
2018-03-31T14:56:46.761Z,86.21
2018-03-31T14:59:13.611Z,86.06
2018-03-31T15:01:40.479Z,85.02
2018-03-31T15:04:07.327Z,85.42
2018-03-31T15:06:34.219Z,85.65
2018-03-31T15:09:01.066Z,85.81
2018-03-31T15:11:27.925Z,85.55
2018-03-31T15:13:54.772Z,84.97
2018-03-31T15:16:21.642Z,86.25
2018-03-31T15:18:48.476Z,86.06
2018-03-31T15:21:15.330Z,86.08
2018-03-31T15:23:42.175Z,85.15
2018-03-31T15:26:09.029Z,85.32
2018-03-31T15:28:35.915Z,85.92
2018-03-31T15:31:02.731Z,85.50
2018-03-31T15:33:29.591Z,85.59
2018-03-31T15:35:57.250Z,85.96
2018-03-31T15:38:24.107Z,85.61
2018-03-31T15:40:50.955Z,85.41
2018-03-31T15:43:17.811Z,85.12
2018-03-31T15:45:44.719Z,86.08
2018-03-31T15:48:11.663Z,86.09
2018-03-31T15:50:38.530Z,86.02
2018-03-31T15:53:05.387Z,85.69
2018-03-31T15:55:32.243Z,85.67
2018-03-31T15:57:59.134Z,86.29
2018-03-31T16:00:25.991Z,85.29
2018-03-31T16:02:52.839Z,85.63
2018-03-31T16:05:19.690Z,86.77
2018-03-31T16:07:46.547Z,86.85
2018-03-31T16:10:13.403Z,87.01
2018-03-31T16:12:40.257Z,87.54
2018-03-31T16:15:07.136Z,86.88
2018-03-31T16:17:33.999Z,86.49
2018-03-31T16:20:00.926Z,86.37
2018-03-31T16:22:27.781Z,87.01
2018-03-31T16:24:54.635Z,86.86
2018-03-31T16:27:21.478Z,87.02
2018-03-31T16:29:48.334Z,87.61
2018-03-31T16:32:15.191Z,87.72
2018-03-31T16:34:42.135Z,86.38
2018-03-31T16:37:08.971Z,86.86
2018-03-31T16:39:35.827Z,87.66
2018-03-31T16:42:02.686Z,88.36
2018-03-31T16:44:29.526Z,87.84
2018-03-31T16:46:56.440Z,87.51
2018-03-31T16:49:23.250Z,87.87
2018-03-31T16:51:50.107Z,87.51
2018-03-31T16:54:16.947Z,87.86
2018-03-31T16:56:43.802Z,87.99
2018-03-31T16:59:10.699Z,88.56
2018-03-31T17:01:37.651Z,88.55
2018-03-31T17:04:04.544Z,88.66
2018-03-31T17:06:31.448Z,88.41
2018-03-31T17:08:58.379Z,88.90
2018-03-31T17:11:25.240Z,89.71
2018-03-31T17:13:52.162Z,89.04
2018-03-31T17:16:19.022Z,88.81
2018-03-31T17:18:45.866Z,89.13
2018-03-31T17:21:12.791Z,88.94
2018-03-31T17:23:39.866Z,88.77
2018-03-31T17:26:06.799Z,89.46
2018-03-31T17:28:33.731Z,89.61
2018-03-31T17:31:00.597Z,89.84
2018-03-31T17:33:27.434Z,89.42
2018-03-31T17:35:54.286Z,89.43
2018-03-31T17:38:21.131Z,89.64
2018-03-31T17:40:47.996Z,89.92
2018-03-31T17:43:14.863Z,89.97
2018-03-31T17:45:41.735Z,89.35
2018-03-31T17:48:08.593Z,88.68
2018-03-31T17:50:35.455Z,88.65
2018-03-31T17:53:02.413Z,88.49
2018-03-31T17:55:29.280Z,88.50
2018-03-31T17:57:56.208Z,88.36
2018-03-31T18:00:23.071Z,88.99
2018-03-31T18:02:49.987Z,89.03
2018-03-31T18:05:16.834Z,88.74
2018-03-31T18:07:43.734Z,88.46
2018-03-31T18:10:10.583Z,88.97
2018-03-31T18:12:37.460Z,88.92
2018-03-31T18:15:04.312Z,89.33
2018-03-31T18:17:31.223Z,89.40
2018-03-31T18:19:58.175Z,89.63
2018-03-31T18:22:25.036Z,89.39
2018-03-31T18:24:51.882Z,89.00
2018-03-31T18:27:18.790Z,89.21
2018-03-31T18:29:45.638Z,88.99
2018-03-31T18:32:12.591Z,88.89
2018-03-31T18:34:39.532Z,89.04
2018-03-31T18:37:06.470Z,89.16
2018-03-31T18:39:33.418Z,89.61
2018-03-31T18:42:00.283Z,89.62
2018-03-31T18:44:27.137Z,90.04
2018-03-31T18:46:54.000Z,90.12
2018-03-31T18:49:20.851Z,90.38
2018-03-31T18:51:47.714Z,90.66
2018-03-31T18:54:14.562Z,90.71
2018-03-31T18:56:41.423Z,90.71
2018-03-31T18:59:08.284Z,90.90
2018-03-31T19:01:35.170Z,91.01
2018-03-31T19:04:01.998Z,90.42
2018-03-31T19:06:28.938Z,90.39
2018-03-31T19:08:55.787Z,90.79
2018-03-31T19:11:22.642Z,91.04
2018-03-31T19:13:49.488Z,90.57
2018-03-31T19:16:16.343Z,90.68
2018-03-31T19:18:43.191Z,89.86
2018-03-31T19:21:10.048Z,90.17
2018-03-31T19:23:36.899Z,89.56
2018-03-31T19:26:03.754Z,88.53
2018-03-31T19:28:30.599Z,88.90
2018-03-31T19:30:57.459Z,88.91
2018-03-31T19:33:24.307Z,88.97
2018-03-31T19:35:56.770Z,88.62
2018-03-31T19:38:23.614Z,88.82
2018-03-31T19:40:51.440Z,88.53
2018-03-31T19:43:18.299Z,88.83
2018-03-31T19:45:45.138Z,88.89
2018-03-31T19:48:11.987Z,88.93
2018-03-31T19:50:38.883Z,89.18
2018-03-31T19:53:05.743Z,88.90
2018-03-31T19:55:32.588Z,89.32
2018-03-31T19:57:59.455Z,89.21
2018-03-31T20:00:26.307Z,89.03
2018-03-31T20:02:53.171Z,88.96
2018-03-31T20:05:20.030Z,89.35
2018-03-31T20:07:46.889Z,88.83
2018-03-31T20:10:13.736Z,88.53
2018-03-31T20:12:40.597Z,88.29
2018-03-31T20:15:07.443Z,88.17
2018-03-31T20:17:34.307Z,88.48
2018-03-31T20:20:01.163Z,88.34
2018-03-31T20:22:28.023Z,88.10
2018-03-31T20:24:54.945Z,87.68
2018-03-31T20:27:21.820Z,87.71
2018-03-31T20:29:48.658Z,87.36
2018-03-31T20:32:15.555Z,87.64
2018-03-31T20:34:42.409Z,87.64
2018-03-31T20:37:09.279Z,87.47
2018-03-31T20:39:36.127Z,87.29
2018-03-31T20:42:03.074Z,87.46
2018-03-31T20:44:29.916Z,86.87
2018-03-31T20:46:56.773Z,87.10
2018-03-31T20:49:23.662Z,86.97
2018-03-31T20:51:50.515Z,86.97
2018-03-31T20:54:17.358Z,87.04
2018-03-31T20:56:45.020Z,87.45
2018-03-31T20:59:11.854Z,87.42
2018-03-31T21:01:38.784Z,87.58
2018-03-31T21:04:05.635Z,87.00
2018-03-31T21:06:32.489Z,87.49
2018-03-31T21:08:59.341Z,88.14
2018-03-31T21:11:26.254Z,88.13
2018-03-31T21:13:53.095Z,88.26
2018-03-31T21:16:20.055Z,87.81
2018-03-31T21:18:46.897Z,87.84
2018-03-31T21:21:13.738Z,88.07
2018-03-31T21:23:40.594Z,87.99
2018-03-31T21:26:07.452Z,88.04
2018-03-31T21:28:34.305Z,87.68
2018-03-31T21:31:01.152Z,87.70
2018-03-31T21:33:28.007Z,87.08
2018-03-31T21:35:54.846Z,87.53
2018-03-31T21:38:21.722Z,87.68
2018-03-31T21:40:48.570Z,87.39
2018-03-31T21:43:15.418Z,87.10
2018-03-31T21:45:42.267Z,86.72
2018-03-31T21:48:09.195Z,87.16
2018-03-31T21:50:36.050Z,87.08
2018-03-31T21:53:02.898Z,86.33
2018-03-31T21:55:29.743Z,85.99
2018-03-31T21:57:56.602Z,86.08
2018-03-31T22:00:23.454Z,85.92
2018-03-31T22:02:50.311Z,85.94
2018-03-31T22:05:17.186Z,85.71
2018-03-31T22:07:44.043Z,85.42
2018-03-31T22:10:10.912Z,84.86
2018-03-31T22:12:37.768Z,84.66
2018-03-31T22:15:11.305Z,85.26
2018-03-31T22:17:38.155Z,84.99
2018-03-31T22:20:05.099Z,86.23
2018-03-31T22:22:31.948Z,86.86
2018-03-31T22:24:58.802Z,87.18
2018-03-31T22:27:25.727Z,87.21
2018-03-31T22:29:52.631Z,87.16
2018-03-31T22:32:19.499Z,87.36
2018-03-31T22:34:46.414Z,87.27
2018-03-31T22:37:13.273Z,87.35
2018-03-31T22:39:40.122Z,87.21
2018-03-31T22:42:07.052Z,87.06
2018-03-31T22:44:33.890Z,87.49
2018-03-31T22:47:00.746Z,87.26
2018-03-31T22:49:27.602Z,87.12
2018-03-31T22:51:54.839Z,87.09
2018-03-31T22:54:21.686Z,86.55
2018-03-31T22:56:48.550Z,85.88
2018-03-31T22:59:15.408Z,85.38
2018-03-31T23:01:42.261Z,85.21
2018-03-31T23:04:09.116Z,84.65
2018-03-31T23:06:35.962Z,84.13
2018-03-31T23:09:02.816Z,83.72
2018-03-31T23:11:29.770Z,83.45
2018-03-31T23:13:56.719Z,82.56
2018-03-31T23:16:23.658Z,82.84
2018-03-31T23:18:50.513Z,82.86
2018-03-31T23:21:17.362Z,82.04
2018-03-31T23:23:44.214Z,81.79
2018-03-31T23:26:11.067Z,82.21
2018-03-31T23:28:37.923Z,82.06
2018-03-31T23:31:04.786Z,82.02
2018-03-31T23:33:32.662Z,81.47
2018-03-31T23:35:59.517Z,81.11
2018-03-31T23:38:26.462Z,80.89
2018-03-31T23:40:53.347Z,80.62
2018-03-31T23:43:20.206Z,80.72
2018-03-31T23:45:47.058Z,80.78
2018-03-31T23:48:13.913Z,80.22
2018-03-31T23:50:40.761Z,80.13
2018-03-31T23:53:07.627Z,79.51
2018-03-31T23:55:34.471Z,78.74
2018-03-31T23:58:01.324Z,78.22
